sensor_id;sensor_type;location;lat;lon;timestamp;pressure;altitude;pressure_sealevel;temperature;humidity
15817;BME280;8009;50.070;8.232;2022-12-18T00:01:58;101391.94;;;-4.82;74.32
15817;BME280;8009;50.070;8.232;2022-12-18T00:04:58;101392.50;;;-5.12;75.03
15817;BME280;8009;50.070;8.232;2022-12-18T00:07:26;101398.22;;;-5.53;76.59
15817;BME280;8009;50.070;8.232;2022-12-18T00:09:55;101388.78;;;-5.34;75.61
15817;BME280;8009;50.070;8.232;2022-12-18T00:12:23;101392.34;;;-6.02;77.06
15817;BME280;8009;50.070;8.232;2022-12-18T00:15:19;101393.75;;;-5.58;76.57
15817;BME280;8009;50.070;8.232;2022-12-18T00:18:02;101391.94;;;-5.61;75.04
15817;BME280;8009;50.070;8.232;2022-12-18T00:20:35;101386.69;;;-5.63;75.17
15817;BME280;8009;50.070;8.232;2022-12-18T00:23:34;101377.34;;;-5.37;74.36
15817;BME280;8009;50.070;8.232;2022-12-18T00:26:18;101383.00;;;-4.99;72.52
15817;BME280;8009;50.070;8.232;2022-12-18T00:28:47;101380.00;;;-5.33;73.28
15817;BME280;8009;50.070;8.232;2022-12-18T00:31:17;101380.38;;;-5.75;73.71
15817;BME280;8009;50.070;8.232;2022-12-18T00:33:48;101377.03;;;-5.64;73.81
15817;BME280;8009;50.070;8.232;2022-12-18T00:36:18;101377.75;;;-5.74;73.68
15817;BME280;8009;50.070;8.232;2022-12-18T00:38:49;101383.31;;;-5.51;72.48
15817;BME280;8009;50.070;8.232;2022-12-18T00:41:18;101389.56;;;-5.40;71.82
15817;BME280;8009;50.070;8.232;2022-12-18T00:44:06;101390.88;;;-5.77;72.47
15817;BME280;8009;50.070;8.232;2022-12-18T00:47:09;101391.41;;;-6.04;73.40
15817;BME280;8009;50.070;8.232;2022-12-18T00:49:41;101400.84;;;-5.50;71.76
15817;BME280;8009;50.070;8.232;2022-12-18T00:52:09;101391.06;;;-5.63;71.77
15817;BME280;8009;50.070;8.232;2022-12-18T00:54:38;101394.00;;;-6.07;72.33
15817;BME280;8009;50.070;8.232;2022-12-18T00:57:31;101393.09;;;-5.39;71.42
15817;BME280;8009;50.070;8.232;2022-12-18T01:00:21;101393.53;;;-5.75;72.16
15817;BME280;8009;50.070;8.232;2022-12-18T01:06:36;101387.63;;;-6.23;72.23
15817;BME280;8009;50.070;8.232;2022-12-18T01:09:17;101388.13;;;-5.88;71.79
15817;BME280;8009;50.070;8.232;2022-12-18T01:11:45;101403.25;;;-5.71;71.02
15817;BME280;8009;50.070;8.232;2022-12-18T01:14:15;101407.69;;;-6.31;72.65
15817;BME280;8009;50.070;8.232;2022-12-18T01:19:55;101400.94;;;-6.12;71.23
15817;BME280;8009;50.070;8.232;2022-12-18T01:22:28;101401.72;;;-5.52;70.49
15817;BME280;8009;50.070;8.232;2022-12-18T01:24:59;101403.91;;;-5.86;71.65
15817;BME280;8009;50.070;8.232;2022-12-18T01:27:28;101418.88;;;-5.83;70.94
15817;BME280;8009;50.070;8.232;2022-12-18T01:33:07;101429.66;;;-5.64;70.59
15817;BME280;8009;50.070;8.232;2022-12-18T01:36:06;101424.81;;;-5.30;69.46
15817;BME280;8009;50.070;8.232;2022-12-18T01:38:54;101420.88;;;-5.63;70.07
15817;BME280;8009;50.070;8.232;2022-12-18T01:42:03;101426.88;;;-5.73;71.24
15817;BME280;8009;50.070;8.232;2022-12-18T01:45:05;101428.03;;;-5.52;70.38
15817;BME280;8009;50.070;8.232;2022-12-18T01:48:08;101420.19;;;-5.48;70.18
15817;BME280;8009;50.070;8.232;2022-12-18T01:50:52;101418.00;;;-5.82;70.84
15817;BME280;8009;50.070;8.232;2022-12-18T01:53:22;101418.78;;;-5.90;71.88
15817;BME280;8009;50.070;8.232;2022-12-18T01:55:56;101415.84;;;-5.44;69.69
15817;BME280;8009;50.070;8.232;2022-12-18T02:04:47;101413.28;;;-5.38;69.84
15817;BME280;8009;50.070;8.232;2022-12-18T02:13:27;101408.66;;;-5.59;71.52
15817;BME280;8009;50.070;8.232;2022-12-18T02:16:16;101409.03;;;-5.27;70.47
15817;BME280;8009;50.070;8.232;2022-12-18T02:19:06;101392.53;;;-5.10;70.45
15817;BME280;8009;50.070;8.232;2022-12-18T02:21:46;101397.59;;;-5.29;70.76
15817;BME280;8009;50.070;8.232;2022-12-18T02:24:40;101394.72;;;-5.50;71.09
15817;BME280;8009;50.070;8.232;2022-12-18T02:27:27;101380.13;;;-5.22;70.06
15817;BME280;8009;50.070;8.232;2022-12-18T02:30:50;101388.84;;;-5.28;70.33
15817;BME280;8009;50.070;8.232;2022-12-18T02:33:25;101385.06;;;-5.50;71.74
15817;BME280;8009;50.070;8.232;2022-12-18T02:42:35;101368.91;;;-5.03;69.34
15817;BME280;8009;50.070;8.232;2022-12-18T02:45:07;101370.63;;;-5.06;69.02
15817;BME280;8009;50.070;8.232;2022-12-18T02:50:54;101387.78;;;-5.44;71.12
15817;BME280;8009;50.070;8.232;2022-12-18T02:56:50;101399.31;;;-5.32;70.91
15817;BME280;8009;50.070;8.232;2022-12-18T03:03:07;101398.34;;;-5.39;70.67
15817;BME280;8009;50.070;8.232;2022-12-18T03:09:02;101393.53;;;-4.96;69.42
15817;BME280;8009;50.070;8.232;2022-12-18T03:11:38;101394.97;;;-5.27;71.12
15817;BME280;8009;50.070;8.232;2022-12-18T03:14:27;101399.56;;;-5.09;69.65
15817;BME280;8009;50.070;8.232;2022-12-18T03:17:16;101388.19;;;-5.07;69.62
15817;BME280;8009;50.070;8.232;2022-12-18T03:19:51;101392.50;;;-5.15;70.30
15817;BME280;8009;50.070;8.232;2022-12-18T03:22:45;101389.19;;;-4.93;69.81
15817;BME280;8009;50.070;8.232;2022-12-18T03:29:07;101381.94;;;-5.17;70.54
15817;BME280;8009;50.070;8.232;2022-12-18T03:31:51;101384.75;;;-5.00;69.76
15817;BME280;8009;50.070;8.232;2022-12-18T03:34:24;101377.78;;;-4.93;70.02
15817;BME280;8009;50.070;8.232;2022-12-18T03:36:58;101381.34;;;-4.85;69.91
15817;BME280;8009;50.070;8.232;2022-12-18T03:39:52;101379.22;;;-5.26;70.42
15817;BME280;8009;50.070;8.232;2022-12-18T03:45:52;101384.53;;;-5.21;70.58
15817;BME280;8009;50.070;8.232;2022-12-18T03:48:52;101384.31;;;-5.38;71.89
15817;BME280;8009;50.070;8.232;2022-12-18T03:54:50;101380.25;;;-5.08;72.33
15817;BME280;8009;50.070;8.232;2022-12-18T03:57:53;101382.09;;;-5.01;71.08
15817;BME280;8009;50.070;8.232;2022-12-18T04:03:49;101366.59;;;-4.66;70.12
15817;BME280;8009;50.070;8.232;2022-12-18T04:09:31;101366.53;;;-4.75;70.18
15817;BME280;8009;50.070;8.232;2022-12-18T04:12:15;101372.16;;;-5.27;71.93
15817;BME280;8009;50.070;8.232;2022-12-18T04:18:47;101364.16;;;-4.40;69.43
15817;BME280;8009;50.070;8.232;2022-12-18T04:21:15;101369.28;;;-4.61;69.25
15817;BME280;8009;50.070;8.232;2022-12-18T04:23:43;101366.78;;;-4.46;69.02
15817;BME280;8009;50.070;8.232;2022-12-18T04:26:12;101373.56;;;-4.76;70.46
15817;BME280;8009;50.070;8.232;2022-12-18T04:28:43;101370.16;;;-4.59;69.72
15817;BME280;8009;50.070;8.232;2022-12-18T04:31:36;101366.72;;;-4.54;69.54
15817;BME280;8009;50.070;8.232;2022-12-18T04:37:27;101359.66;;;-4.55;69.89
15817;BME280;8009;50.070;8.232;2022-12-18T04:40:03;101355.34;;;-4.44;69.63
15817;BME280;8009;50.070;8.232;2022-12-18T04:42:44;101354.41;;;-4.52;70.46
15817;BME280;8009;50.070;8.232;2022-12-18T04:45:32;101357.97;;;-4.44;69.08
15817;BME280;8009;50.070;8.232;2022-12-18T04:48:16;101362.91;;;-4.86;70.46
15817;BME280;8009;50.070;8.232;2022-12-18T04:53:57;101382.31;;;-4.78;70.65
15817;BME280;8009;50.070;8.232;2022-12-18T04:56:25;101382.22;;;-4.87;69.99
15817;BME280;8009;50.070;8.232;2022-12-18T04:58:54;101377.31;;;-4.46;70.24
15817;BME280;8009;50.070;8.232;2022-12-18T05:01:25;101374.72;;;-4.42;69.47
15817;BME280;8009;50.070;8.232;2022-12-18T05:04:07;101370.19;;;-4.56;70.20
15817;BME280;8009;50.070;8.232;2022-12-18T05:06:35;101375.47;;;-4.56;70.26
15817;BME280;8009;50.070;8.232;2022-12-18T05:09:06;101368.31;;;-4.73;70.58
15817;BME280;8009;50.070;8.232;2022-12-18T05:11:36;101381.72;;;-4.41;70.80
15817;BME280;8009;50.070;8.232;2022-12-18T05:14:08;101380.84;;;-4.43;71.03
15817;BME280;8009;50.070;8.232;2022-12-18T05:19:43;101378.31;;;-4.30;69.88
15817;BME280;8009;50.070;8.232;2022-12-18T05:22:39;101385.03;;;-4.66;69.99
15817;BME280;8009;50.070;8.232;2022-12-18T05:25:08;101384.38;;;-4.42;70.14
15817;BME280;8009;50.070;8.232;2022-12-18T05:27:43;101384.16;;;-4.68;70.78
15817;BME280;8009;50.070;8.232;2022-12-18T05:30:13;101381.31;;;-4.90;71.72
15817;BME280;8009;50.070;8.232;2022-12-18T05:32:42;101384.47;;;-4.28;70.10
15817;BME280;8009;50.070;8.232;2022-12-18T05:35:26;101379.91;;;-4.48;69.64
15817;BME280;8009;50.070;8.232;2022-12-18T05:38:16;101377.13;;;-4.66;71.26
15817;BME280;8009;50.070;8.232;2022-12-18T05:40:45;101370.41;;;-4.26;69.84
15817;BME280;8009;50.070;8.232;2022-12-18T05:43:13;101375.59;;;-4.43;69.71
15817;BME280;8009;50.070;8.232;2022-12-18T05:46:13;101375.50;;;-4.53;69.63
15817;BME280;8009;50.070;8.232;2022-12-18T05:48:44;101376.44;;;-4.44;70.90
15817;BME280;8009;50.070;8.232;2022-12-18T05:58:06;101358.63;;;-4.75;71.05
15817;BME280;8009;50.070;8.232;2022-12-18T06:03:56;101359.44;;;-4.81;71.44
15817;BME280;8009;50.070;8.232;2022-12-18T06:09:35;101378.75;;;-4.82;71.83
15817;BME280;8009;50.070;8.232;2022-12-18T06:12:04;101377.16;;;-4.63;71.12
15817;BME280;8009;50.070;8.232;2022-12-18T06:14:37;101386.03;;;-4.53;70.93
15817;BME280;8009;50.070;8.232;2022-12-18T06:17:13;101391.22;;;-4.62;70.31
15817;BME280;8009;50.070;8.232;2022-12-18T06:19:41;101387.81;;;-4.48;70.39
15817;BME280;8009;50.070;8.232;2022-12-18T06:22:09;101386.63;;;-4.88;71.58
15817;BME280;8009;50.070;8.232;2022-12-18T06:24:38;101386.00;;;-4.56;70.80
15817;BME280;8009;50.070;8.232;2022-12-18T06:27:08;101394.47;;;-4.94;72.19
15817;BME280;8009;50.070;8.232;2022-12-18T06:29:46;101404.88;;;-5.05;71.63
15817;BME280;8009;50.070;8.232;2022-12-18T06:35:38;101407.06;;;-4.58;71.34
15817;BME280;8009;50.070;8.232;2022-12-18T06:38:07;101408.31;;;-4.08;69.59
15817;BME280;8009;50.070;8.232;2022-12-18T06:40:37;101408.09;;;-4.39;70.49
15817;BME280;8009;50.070;8.232;2022-12-18T06:43:06;101413.00;;;-4.82;71.00
15817;BME280;8009;50.070;8.232;2022-12-18T06:45:40;101419.09;;;-4.91;71.59
15817;BME280;8009;50.070;8.232;2022-12-18T06:48:32;101419.16;;;-4.84;71.61
15817;BME280;8009;50.070;8.232;2022-12-18T06:51:26;101414.97;;;-4.59;71.06
15817;BME280;8009;50.070;8.232;2022-12-18T06:53:55;101418.47;;;-4.62;71.23
15817;BME280;8009;50.070;8.232;2022-12-18T06:56:23;101421.03;;;-4.70;70.78
15817;BME280;8009;50.070;8.232;2022-12-18T06:58:52;101420.94;;;-4.77;71.67
15817;BME280;8009;50.070;8.232;2022-12-18T07:01:23;101422.22;;;-5.24;71.38
15817;BME280;8009;50.070;8.232;2022-12-18T07:04:04;101414.53;;;-5.05;72.05
15817;BME280;8009;50.070;8.232;2022-12-18T07:06:47;101422.44;;;-5.05;71.32
15817;BME280;8009;50.070;8.232;2022-12-18T07:09:16;101420.16;;;-4.72;70.33
15817;BME280;8009;50.070;8.232;2022-12-18T07:11:44;101420.03;;;-4.84;71.09
15817;BME280;8009;50.070;8.232;2022-12-18T07:14:13;101422.53;;;-4.96;71.13
15817;BME280;8009;50.070;8.232;2022-12-18T07:20:00;101422.19;;;-4.38;70.16
15817;BME280;8009;50.070;8.232;2022-12-18T07:22:56;101415.09;;;-4.44;70.27
15817;BME280;8009;50.070;8.232;2022-12-18T07:28:36;101419.66;;;-4.26;68.43
15817;BME280;8009;50.070;8.232;2022-12-18T07:31:05;101422.09;;;-4.49;69.65
15817;BME280;8009;50.070;8.232;2022-12-18T07:36:32;101417.50;;;-4.72;69.16
15817;BME280;8009;50.070;8.232;2022-12-18T07:39:15;101417.44;;;-4.78;68.42
15817;BME280;8009;50.070;8.232;2022-12-18T07:41:44;101412.94;;;-4.91;68.95
15817;BME280;8009;50.070;8.232;2022-12-18T07:44:35;101424.16;;;-5.10;69.88
15817;BME280;8009;50.070;8.232;2022-12-18T07:47:19;101423.66;;;-5.52;70.96
15817;BME280;8009;50.070;8.232;2022-12-18T07:49:47;101429.28;;;-5.20;69.90
15817;BME280;8009;50.070;8.232;2022-12-18T07:52:19;101439.59;;;-5.38;71.08
15817;BME280;8009;50.070;8.232;2022-12-18T07:54:50;101433.13;;;-4.92;69.77
15817;BME280;8009;50.070;8.232;2022-12-18T07:57:18;101444.81;;;-4.65;69.54
15817;BME280;8009;50.070;8.232;2022-12-18T08:00:01;101452.25;;;-5.09;70.89
15817;BME280;8009;50.070;8.232;2022-12-18T08:15:04;101456.59;;;-5.13;71.46
15817;BME280;8009;50.070;8.232;2022-12-18T08:17:54;101454.28;;;-4.84;70.81
15817;BME280;8009;50.070;8.232;2022-12-18T08:20:35;101454.97;;;-5.03;72.13
15817;BME280;8009;50.070;8.232;2022-12-18T08:23:18;101457.91;;;-4.70;70.97
15817;BME280;8009;50.070;8.232;2022-12-18T08:26:08;101451.00;;;-4.60;71.19
15817;BME280;8009;50.070;8.232;2022-12-18T08:28:43;101455.03;;;-4.96;71.73
15817;BME280;8009;50.070;8.232;2022-12-18T08:31:12;101456.28;;;-4.61;70.74
15817;BME280;8009;50.070;8.232;2022-12-18T08:33:42;101451.00;;;-4.61;70.52
15817;BME280;8009;50.070;8.232;2022-12-18T08:36:23;101456.13;;;-4.75;71.22
15817;BME280;8009;50.070;8.232;2022-12-18T08:38:52;101435.31;;;-4.46;69.80
15817;BME280;8009;50.070;8.232;2022-12-18T08:41:27;101422.94;;;-4.53;70.60
15817;BME280;8009;50.070;8.232;2022-12-18T08:44:08;101430.00;;;-4.48;70.44
15817;BME280;8009;50.070;8.232;2022-12-18T08:46:48;101428.16;;;-4.59;70.63
15817;BME280;8009;50.070;8.232;2022-12-18T08:49:17;101429.06;;;-4.56;70.82
15817;BME280;8009;50.070;8.232;2022-12-18T08:51:45;101431.75;;;-4.51;70.56
15817;BME280;8009;50.070;8.232;2022-12-18T08:54:14;101426.63;;;-4.34;69.63
15817;BME280;8009;50.070;8.232;2022-12-18T08:56:48;101430.97;;;-4.41;70.27
15817;BME280;8009;50.070;8.232;2022-12-18T08:59:20;101422.13;;;-4.43;70.16
15817;BME280;8009;50.070;8.232;2022-12-18T09:01:48;101420.34;;;-4.47;70.44
15817;BME280;8009;50.070;8.232;2022-12-18T09:04:17;101433.66;;;-4.33;69.95
15817;BME280;8009;50.070;8.232;2022-12-18T09:06:45;101435.28;;;-4.49;70.71
15817;BME280;8009;50.070;8.232;2022-12-18T09:09:20;101442.38;;;-4.39;70.91
15817;BME280;8009;50.070;8.232;2022-12-18T09:11:51;101452.78;;;-4.57;70.93
15817;BME280;8009;50.070;8.232;2022-12-18T09:14:20;101450.53;;;-4.11;70.07
15817;BME280;8009;50.070;8.232;2022-12-18T09:16:48;101458.59;;;-4.89;72.20
15817;BME280;8009;50.070;8.232;2022-12-18T09:19:17;101461.41;;;-4.74;72.29
15817;BME280;8009;50.070;8.232;2022-12-18T09:21:45;101451.38;;;-4.15;70.47
15817;BME280;8009;50.070;8.232;2022-12-18T09:24:14;101452.34;;;-4.01;70.00
15817;BME280;8009;50.070;8.232;2022-12-18T09:26:42;101457.81;;;-3.75;69.25
15817;BME280;8009;50.070;8.232;2022-12-18T09:32:17;101460.25;;;-4.03;69.98
15817;BME280;8009;50.070;8.232;2022-12-18T09:34:45;101457.72;;;-3.86;70.37
15817;BME280;8009;50.070;8.232;2022-12-18T09:37:16;101450.84;;;-3.62;69.36
15817;BME280;8009;50.070;8.232;2022-12-18T09:39:46;101447.34;;;-3.58;70.07
15817;BME280;8009;50.070;8.232;2022-12-18T09:42:20;101454.41;;;-3.51;70.18
15817;BME280;8009;50.070;8.232;2022-12-18T09:44:50;101454.47;;;-3.36;69.76
15817;BME280;8009;50.070;8.232;2022-12-18T09:47:25;101456.31;;;-3.18;69.73
15817;BME280;8009;50.070;8.232;2022-12-18T09:49:58;101457.25;;;-3.08;69.03
15817;BME280;8009;50.070;8.232;2022-12-18T09:52:32;101459.91;;;-3.01;68.86
15817;BME280;8009;50.070;8.232;2022-12-18T09:55:10;101457.22;;;-3.13;69.73
15817;BME280;8009;50.070;8.232;2022-12-18T09:57:44;101451.09;;;-3.00;69.11
15817;BME280;8009;50.070;8.232;2022-12-18T10:00:18;101449.34;;;-3.01;69.15
15817;BME280;8009;50.070;8.232;2022-12-18T10:02:50;101454.59;;;-3.07;69.16
15817;BME280;8009;50.070;8.232;2022-12-18T10:05:34;101455.31;;;-3.48;69.14
15817;BME280;8009;50.070;8.232;2022-12-18T10:08:08;101459.88;;;-3.05;68.48
15817;BME280;8009;50.070;8.232;2022-12-18T10:10:58;101436.16;;;-2.88;67.42
15817;BME280;8009;50.070;8.232;2022-12-18T10:13:33;101429.91;;;-3.24;67.60
15817;BME280;8009;50.070;8.232;2022-12-18T10:16:11;101433.38;;;-3.33;67.97
15817;BME280;8009;50.070;8.232;2022-12-18T10:22:00;101430.78;;;-3.10;67.17
15817;BME280;8009;50.070;8.232;2022-12-18T10:24:49;101434.38;;;-2.97;67.34
15817;BME280;8009;50.070;8.232;2022-12-18T10:27:23;101416.78;;;-2.72;66.47
15817;BME280;8009;50.070;8.232;2022-12-18T10:29:53;101418.56;;;-2.74;67.09
15817;BME280;8009;50.070;8.232;2022-12-18T10:32:26;101428.09;;;-3.25;67.33
15817;BME280;8009;50.070;8.232;2022-12-18T10:34:57;101422.91;;;-3.08;67.55
15817;BME280;8009;50.070;8.232;2022-12-18T10:37:28;101409.75;;;-2.64;66.65
15817;BME280;8009;50.070;8.232;2022-12-18T10:40:10;101425.59;;;-2.79;68.20
15817;BME280;8009;50.070;8.232;2022-12-18T10:42:39;101414.16;;;-2.58;67.03
15817;BME280;8009;50.070;8.232;2022-12-18T10:45:11;101422.94;;;-2.84;66.93
15817;BME280;8009;50.070;8.232;2022-12-18T10:47:45;101418.53;;;-2.83;66.89
15817;BME280;8009;50.070;8.232;2022-12-18T10:50:28;101415.03;;;-2.75;66.79
15817;BME280;8009;50.070;8.232;2022-12-18T10:52:59;101411.50;;;-2.66;66.51
15817;BME280;8009;50.070;8.232;2022-12-18T10:55:31;101412.41;;;-2.47;66.88
15817;BME280;8009;50.070;8.232;2022-12-18T10:58:18;101414.16;;;-2.77;66.79
15817;BME280;8009;50.070;8.232;2022-12-18T11:01:03;101426.47;;;-2.73;66.80
15817;BME280;8009;50.070;8.232;2022-12-18T11:03:34;101422.09;;;-2.58;66.13
15817;BME280;8009;50.070;8.232;2022-12-18T11:06:08;101415.88;;;-2.91;66.66
15817;BME280;8009;50.070;8.232;2022-12-18T11:08:57;101406.22;;;-2.69;67.53
15817;BME280;8009;50.070;8.232;2022-12-18T11:11:26;101402.69;;;-2.33;65.92
15817;BME280;8009;50.070;8.232;2022-12-18T11:14:04;101408.00;;;-2.51;65.92
15817;BME280;8009;50.070;8.232;2022-12-18T11:19:42;101411.50;;;-2.52;66.14
15817;BME280;8009;50.070;8.232;2022-12-18T11:25:20;101422.97;;;-2.53;65.68
15817;BME280;8009;50.070;8.232;2022-12-18T11:27:49;101418.56;;;-2.73;66.75
15817;BME280;8009;50.070;8.232;2022-12-18T11:33:39;101418.50;;;-2.91;66.69
15817;BME280;8009;50.070;8.232;2022-12-18T11:36:16;101406.22;;;-2.61;66.09
15817;BME280;8009;50.070;8.232;2022-12-18T11:38:49;101403.56;;;-2.23;65.96
15817;BME280;8009;50.070;8.232;2022-12-18T11:41:24;101400.94;;;-2.23;65.83
15817;BME280;8009;50.070;8.232;2022-12-18T11:44:19;101399.19;;;-2.29;65.38
15817;BME280;8009;50.070;8.232;2022-12-18T11:46:55;101402.69;;;-2.73;66.29
15817;BME280;8009;50.070;8.232;2022-12-18T11:49:34;101414.16;;;-2.63;67.03
15817;BME280;8009;50.070;8.232;2022-12-18T11:52:13;101416.72;;;-2.98;67.42
15817;BME280;8009;50.070;8.232;2022-12-18T11:54:46;101417.63;;;-2.95;67.73
15817;BME280;8009;50.070;8.232;2022-12-18T11:57:24;101418.50;;;-2.94;67.88
15817;BME280;8009;50.070;8.232;2022-12-18T12:00:04;101408.84;;;-2.80;67.79
15817;BME280;8009;50.070;8.232;2022-12-18T12:03:08;101410.63;;;-2.42;67.49
15817;BME280;8009;50.070;8.232;2022-12-18T12:05:49;101399.16;;;-2.30;67.13
15817;BME280;8009;50.070;8.232;2022-12-18T12:08:23;101400.03;;;-2.82;67.83
15817;BME280;8009;50.070;8.232;2022-12-18T12:11:08;101401.81;;;-2.64;67.75
15817;BME280;8009;50.070;8.232;2022-12-18T12:13:47;101392.13;;;-2.43;67.18
15817;BME280;8009;50.070;8.232;2022-12-18T12:16:18;101394.75;;;-2.22;66.51
15817;BME280;8009;50.070;8.232;2022-12-18T12:19:01;101397.41;;;-2.59;68.12
15817;BME280;8009;50.070;8.232;2022-12-18T12:21:36;101393.84;;;-2.15;66.75
15817;BME280;8009;50.070;8.232;2022-12-18T12:24:22;101392.09;;;-2.22;65.92
15817;BME280;8009;50.070;8.232;2022-12-18T12:26:59;101385.94;;;-2.46;66.91
15817;BME280;8009;50.070;8.232;2022-12-18T12:29:40;101387.72;;;-2.69;66.77
15817;BME280;8009;50.070;8.232;2022-12-18T12:32:29;101387.69;;;-2.64;67.77
15817;BME280;8009;50.070;8.232;2022-12-18T12:35:19;101382.41;;;-2.28;66.98
15817;BME280;8009;50.070;8.232;2022-12-18T12:38:00;101385.03;;;-2.29;66.81
15817;BME280;8009;50.070;8.232;2022-12-18T12:40:33;101375.34;;;-2.64;67.62
15817;BME280;8009;50.070;8.232;2022-12-18T12:46:19;101378.00;;;-2.96;68.42
15817;BME280;8009;50.070;8.232;2022-12-18T12:52:13;101375.38;;;-2.44;68.00
15817;BME280;8009;50.070;8.232;2022-12-18T12:54:45;101372.72;;;-2.61;67.91
15817;BME280;8009;50.070;8.232;2022-12-18T12:57:17;101369.19;;;-2.84;68.37
15817;BME280;8009;50.070;8.232;2022-12-18T13:00:03;101360.38;;;-2.53;66.91
15817;BME280;8009;50.070;8.232;2022-12-18T13:02:36;101348.91;;;-2.91;68.63
15817;BME280;8009;50.070;8.232;2022-12-18T13:05:14;101348.03;;;-2.97;68.22
15817;BME280;8009;50.070;8.232;2022-12-18T13:07:49;101346.25;;;-2.99;68.14
15817;BME280;8009;50.070;8.232;2022-12-18T13:10:31;101343.59;;;-3.24;68.97
15817;BME280;8009;50.070;8.232;2022-12-18T13:13:02;101352.41;;;-3.15;68.55
15817;BME280;8009;50.070;8.232;2022-12-18T13:15:34;101347.16;;;-3.12;68.47
15817;BME280;8009;50.070;8.232;2022-12-18T13:18:19;101344.50;;;-2.76;67.76
15817;BME280;8009;50.070;8.232;2022-12-18T13:24:15;101339.16;;;-2.05;65.51
15817;BME280;8009;50.070;8.232;2022-12-18T13:33:42;101328.63;;;-3.06;67.89
15817;BME280;8009;50.070;8.232;2022-12-18T13:42:46;101327.78;;;-2.62;67.07
15817;BME280;8009;50.070;8.232;2022-12-18T13:45:44;101323.34;;;-3.15;68.54
15817;BME280;8009;50.070;8.232;2022-12-18T13:48:21;101333.00;;;-3.27;68.85
15817;BME280;8009;50.070;8.232;2022-12-18T13:51:09;101323.38;;;-3.00;67.96
15817;BME280;8009;50.070;8.232;2022-12-18T13:53:43;101326.88;;;-3.06;68.06
15817;BME280;8009;50.070;8.232;2022-12-18T13:56:16;101320.72;;;-2.59;67.20
15817;BME280;8009;50.070;8.232;2022-12-18T13:58:44;101321.63;;;-2.78;67.21
15817;BME280;8009;50.070;8.232;2022-12-18T14:04:23;101321.63;;;-2.63;67.22
15817;BME280;8009;50.070;8.232;2022-12-18T14:06:57;101317.19;;;-2.42;66.68
15817;BME280;8009;50.070;8.232;2022-12-18T14:09:30;101312.78;;;-2.96;68.42
15817;BME280;8009;50.070;8.232;2022-12-18T14:11:59;101322.50;;;-2.85;67.91
15817;BME280;8009;50.070;8.232;2022-12-18T14:14:42;101316.31;;;-2.67;67.39
15817;BME280;8009;50.070;8.232;2022-12-18T14:17:12;101328.66;;;-2.80;67.67
15817;BME280;8009;50.070;8.232;2022-12-18T14:19:43;101328.66;;;-2.65;67.32
15817;BME280;8009;50.070;8.232;2022-12-18T14:22:18;101323.38;;;-2.97;68.62
15817;BME280;8009;50.070;8.232;2022-12-18T14:24:47;101326.03;;;-2.82;68.03
15817;BME280;8009;50.070;8.232;2022-12-18T14:27:37;101321.63;;;-2.81;67.93
15817;BME280;8009;50.070;8.232;2022-12-18T14:30:23;101326.91;;;-2.55;67.68
15817;BME280;8009;50.070;8.232;2022-12-18T14:33:00;101314.50;;;-2.30;67.14
15817;BME280;8009;50.070;8.232;2022-12-18T14:35:28;101318.09;;;-2.77;68.27
15817;BME280;8009;50.070;8.232;2022-12-18T14:38:22;101320.72;;;-2.65;68.17
15817;BME280;8009;50.070;8.232;2022-12-18T14:40:55;101316.31;;;-2.80;68.11
15817;BME280;8009;50.070;8.232;2022-12-18T14:43:24;101316.31;;;-2.58;67.88
15817;BME280;8009;50.070;8.232;2022-12-18T14:45:54;101315.44;;;-2.65;68.13
15817;BME280;8009;50.070;8.232;2022-12-18T14:48:35;101311.00;;;-2.32;67.41
15817;BME280;8009;50.070;8.232;2022-12-18T14:51:20;101308.38;;;-2.48;68.05
15817;BME280;8009;50.070;8.232;2022-12-18T14:53:57;101315.44;;;-2.54;67.86
15817;BME280;8009;50.070;8.232;2022-12-18T14:56:27;101317.16;;;-2.35;67.48
15817;BME280;8009;50.070;8.232;2022-12-18T14:58:58;101315.41;;;-2.47;67.90
15817;BME280;8009;50.070;8.232;2022-12-18T15:01:29;101311.03;;;-2.71;68.68
15817;BME280;8009;50.070;8.232;2022-12-18T15:03:59;101318.06;;;-2.65;68.44
15817;BME280;8009;50.070;8.232;2022-12-18T15:06:32;101305.75;;;-2.74;68.99
15817;BME280;8009;50.070;8.232;2022-12-18T15:09:06;101300.47;;;-2.89;69.59
15817;BME280;8009;50.070;8.232;2022-12-18T15:11:49;101296.94;;;-2.82;69.48
15817;BME280;8009;50.070;8.232;2022-12-18T15:14:24;101297.81;;;-2.97;69.78
15817;BME280;8009;50.070;8.232;2022-12-18T15:17:00;101294.31;;;-2.89;70.07
15817;BME280;8009;50.070;8.232;2022-12-18T15:19:53;101303.97;;;-3.24;70.96
15817;BME280;8009;50.070;8.232;2022-12-18T15:22:27;101301.34;;;-3.04;70.66
15817;BME280;8009;50.070;8.232;2022-12-18T15:25:15;101297.78;;;-3.13;70.59
15817;BME280;8009;50.070;8.232;2022-12-18T15:27:52;101305.72;;;-3.30;71.48
15817;BME280;8009;50.070;8.232;2022-12-18T15:30:25;101295.16;;;-3.20;71.40
15817;BME280;8009;50.070;8.232;2022-12-18T15:33:22;101292.53;;;-3.09;70.78
15817;BME280;8009;50.070;8.232;2022-12-18T15:35:56;101281.94;;;-3.06;71.09
15817;BME280;8009;50.070;8.232;2022-12-18T15:38:24;101284.59;;;-2.69;70.11
15817;BME280;8009;50.070;8.232;2022-12-18T15:40:55;101271.38;;;-2.58;70.26
15817;BME280;8009;50.070;8.232;2022-12-18T15:43:25;101281.03;;;-2.36;68.86
15817;BME280;8009;50.070;8.232;2022-12-18T15:46:02;101278.41;;;-2.57;69.30
15817;BME280;8009;50.070;8.232;2022-12-18T15:48:33;101286.38;;;-2.82;70.22
15817;BME280;8009;50.070;8.232;2022-12-18T15:51:08;101283.72;;;-2.59;69.68
15817;BME280;8009;50.070;8.232;2022-12-18T15:53:46;101285.47;;;-2.81;70.05
15817;BME280;8009;50.070;8.232;2022-12-18T15:56:20;101284.59;;;-2.66;70.00
15817;BME280;8009;50.070;8.232;2022-12-18T15:59:14;101281.91;;;-2.49;69.65
15817;BME280;8009;50.070;8.232;2022-12-18T16:01:44;101285.50;;;-2.78;70.10
15817;BME280;8009;50.070;8.232;2022-12-18T16:04:29;101278.41;;;-2.59;69.88
15817;BME280;8009;50.070;8.232;2022-12-18T16:06:57;101285.44;;;-2.39;69.63
15817;BME280;8009;50.070;8.232;2022-12-18T16:09:25;101281.88;;;-2.25;68.99
15817;BME280;8009;50.070;8.232;2022-12-18T16:12:04;101268.66;;;-2.34;69.62
15817;BME280;8009;50.070;8.232;2022-12-18T16:14:38;101268.69;;;-2.40;69.92
15817;BME280;8009;50.070;8.232;2022-12-18T16:17:10;101260.66;;;-2.22;68.98
15817;BME280;8009;50.070;8.232;2022-12-18T16:19:40;101260.78;;;-2.51;70.14
15817;BME280;8009;50.070;8.232;2022-12-18T16:22:18;101266.91;;;-2.41;70.57
15817;BME280;8009;50.070;8.232;2022-12-18T16:24:55;101267.75;;;-2.24;70.03